createdAt,value
2022-12-15T00:02:59.727Z,0.03
2022-12-15T00:08:40.314Z,-0.21
2022-12-15T00:14:20.739Z,-0.11
2022-12-15T00:20:01.136Z,-0.12
2022-12-15T00:25:41.801Z,-0.08
2022-12-15T00:31:22.070Z,-0.22
2022-12-15T00:37:02.239Z,-0.23
2022-12-15T00:42:24.041Z,-0.16
2022-12-15T00:47:45.788Z,-0.01
2022-12-15T00:53:26.807Z,-0.08
2022-12-15T00:59:07.004Z,-0.25
2022-12-15T01:04:47.895Z,-0.32
2022-12-15T01:10:28.628Z,-0.20
2022-12-15T01:16:08.939Z,-0.37
2022-12-15T01:21:31.763Z,-0.31
2022-12-15T01:26:53.476Z,-0.52
2022-12-15T01:32:15.243Z,-0.28
2022-12-15T01:37:37.217Z,-0.30
2022-12-15T01:42:59.084Z,-0.31
2022-12-15T01:48:35.870Z,-0.32
2022-12-15T01:54:03.482Z,-0.12
2022-12-15T01:59:32.930Z,-0.15
2022-12-15T02:04:56.895Z,-0.12
2022-12-15T02:10:18.817Z,-0.12
2022-12-15T02:15:56.023Z,-0.20
2022-12-15T02:21:30.903Z,-0.41
2022-12-15T02:27:13.541Z,-0.23
2022-12-15T02:32:45.440Z,-0.25
2022-12-15T02:38:09.392Z,-0.36
2022-12-15T02:43:36.278Z,-0.26
2022-12-15T02:49:24.355Z,-0.46
2022-12-15T02:55:09.098Z,-0.52
2022-12-15T03:00:36.669Z,-0.37
2022-12-15T03:06:02.136Z,-0.64
2022-12-15T03:11:24.066Z,-0.62
2022-12-15T03:16:46.010Z,-0.55
2022-12-15T03:22:08.007Z,-0.27
2022-12-15T03:27:30.163Z,-0.23
2022-12-15T03:32:51.883Z,-0.17
2022-12-15T03:38:13.738Z,-0.30
2022-12-15T03:43:35.473Z,-0.23
2022-12-15T03:48:57.390Z,-0.23
2022-12-15T03:54:22.538Z,-0.19
2022-12-15T03:59:44.279Z,-0.36
2022-12-15T04:05:06.560Z,-0.23
2022-12-15T04:10:34.225Z,-0.08
2022-12-15T04:15:56.697Z,-0.15
2022-12-15T04:21:18.411Z,-0.11
2022-12-15T04:26:58.737Z,-0.24
2022-12-15T04:32:39.131Z,-0.20
2022-12-15T04:38:19.747Z,-0.24
2022-12-15T04:44:00.385Z,-0.29
2022-12-15T04:49:40.567Z,-0.22
2022-12-15T04:55:20.666Z,-0.27
2022-12-15T05:01:01.028Z,-0.26
2022-12-15T05:06:41.715Z,-0.35
2022-12-15T05:12:22.378Z,-0.32
2022-12-15T05:18:02.529Z,-0.19
2022-12-15T05:23:42.876Z,-0.19
2022-12-15T05:29:23.518Z,-0.20
2022-12-15T05:34:45.257Z,-0.25
2022-12-15T05:40:07.839Z,-0.23
2022-12-15T05:45:29.635Z,-0.20
2022-12-15T05:50:51.639Z,-0.12
2022-12-15T05:56:15.130Z,-0.04
2022-12-15T06:01:37.036Z,-0.05
2022-12-15T06:06:58.838Z,-0.31
2022-12-15T06:12:20.582Z,-0.54
2022-12-15T06:17:42.303Z,-0.24
2022-12-15T06:23:04.013Z,-0.43
2022-12-15T06:28:26.174Z,-0.26
2022-12-15T06:33:49.250Z,-0.31
2022-12-15T06:39:13.673Z,-0.11
2022-12-15T06:44:35.401Z,-0.22
2022-12-15T06:49:57.198Z,-0.19
2022-12-15T06:55:19.098Z,-0.17
2022-12-15T07:00:43.103Z,-0.04
2022-12-15T07:06:07.372Z,-0.19
2022-12-15T07:11:29.725Z,-0.02
2022-12-15T07:16:51.476Z,-0.02
2022-12-15T07:22:13.298Z,-0.06
2022-12-15T07:27:36.164Z,-0.03
2022-12-15T07:32:58.298Z,0.18
2022-12-15T07:38:20.025Z,0.04
2022-12-15T07:43:41.834Z,0.12
2022-12-15T07:49:03.590Z,0.08
2022-12-15T07:54:25.787Z,0.12
2022-12-15T07:59:47.544Z,-0.03
2022-12-15T08:05:10.181Z,0.10
2022-12-15T08:10:32.505Z,0.23
2022-12-15T08:15:57.230Z,0.02
2022-12-15T08:21:19.360Z,0.22
2022-12-15T08:26:42.434Z,0.25
2022-12-15T08:32:05.508Z,0.21
2022-12-15T08:37:27.283Z,0.25
2022-12-15T08:42:49.104Z,0.18
2022-12-15T08:48:10.842Z,0.23
2022-12-15T08:53:32.709Z,0.27
2022-12-15T08:58:57.591Z,0.31
2022-12-15T09:04:19.426Z,0.29
2022-12-15T09:09:41.216Z,0.25
2022-12-15T09:15:03.247Z,0.25
2022-12-15T09:20:25.054Z,0.20
2022-12-15T09:25:47.138Z,0.50
2022-12-15T09:31:14.514Z,0.68
2022-12-15T09:36:36.302Z,0.72
2022-12-15T09:42:01.516Z,0.74
2022-12-15T09:48:02.815Z,0.83
2022-12-15T09:53:53.716Z,0.75
2022-12-15T09:59:32.742Z,0.86
2022-12-15T10:05:22.434Z,0.65
2022-12-15T10:10:57.550Z,0.63
2022-12-15T10:16:38.163Z,0.70
2022-12-15T10:22:00.214Z,0.83
2022-12-15T10:27:36.936Z,0.80
2022-12-15T10:33:19.206Z,0.75
2022-12-15T10:38:47.439Z,0.96
2022-12-15T10:44:39.033Z,0.66
2022-12-15T10:50:24.228Z,0.60
2022-12-15T10:55:49.913Z,0.56
2022-12-15T11:01:18.152Z,0.76
2022-12-15T11:06:42.578Z,0.83
2022-12-15T11:12:46.039Z,0.71
2022-12-15T11:18:27.581Z,0.81
2022-12-15T11:23:59.319Z,1.00
2022-12-15T11:29:23.760Z,0.86
2022-12-15T11:34:47.196Z,0.87
2022-12-15T11:40:40.930Z,0.99
2022-12-15T11:46:14.971Z,1.00
2022-12-15T11:51:44.644Z,1.01
2022-12-15T11:57:25.732Z,1.07
2022-12-15T12:03:38.213Z,1.02
2022-12-15T12:09:18.505Z,0.87
2022-12-15T12:14:58.704Z,0.99
2022-12-15T12:21:04.699Z,1.09
2022-12-15T12:26:35.873Z,0.96
2022-12-15T12:32:07.473Z,1.14
2022-12-15T12:38:01.040Z,1.15
2022-12-15T12:43:43.130Z,1.18
2022-12-15T12:49:26.388Z,1.34
2022-12-15T12:55:17.319Z,1.26
2022-12-15T13:01:14.368Z,1.25
2022-12-15T13:06:36.087Z,1.30
2022-12-15T13:12:14.849Z,1.46
2022-12-15T13:17:48.843Z,1.36
2022-12-15T13:23:19.622Z,1.29
2022-12-15T13:28:45.615Z,1.27
2022-12-15T13:34:22.901Z,1.46
2022-12-15T13:39:54.835Z,1.45
2022-12-15T13:45:30.865Z,1.48
2022-12-15T13:50:55.337Z,1.62
2022-12-15T13:56:52.389Z,1.35
2022-12-15T14:02:32.506Z,1.38
2022-12-15T14:07:54.924Z,1.41
2022-12-15T14:13:43.279Z,1.52
2022-12-15T14:19:16.971Z,1.53
2022-12-15T14:24:44.297Z,1.66
2022-12-15T14:30:30.819Z,1.59
2022-12-15T14:35:55.994Z,1.63
2022-12-15T14:41:28.774Z,1.65
2022-12-15T14:46:50.600Z,1.51
2022-12-15T14:52:31.121Z,1.61
2022-12-15T14:57:53.448Z,1.57
2022-12-15T15:03:18.180Z,1.42
2022-12-15T15:08:50.718Z,1.38
2022-12-15T15:14:16.967Z,1.33
2022-12-15T15:19:46.113Z,1.34
2022-12-15T15:25:54.336Z,1.30
2022-12-15T15:31:41.270Z,1.30
2022-12-15T15:37:05.848Z,1.26
2022-12-15T15:42:32.447Z,1.41
2022-12-15T15:47:56.255Z,1.52
2022-12-15T15:53:21.030Z,1.54
2022-12-15T15:58:43.789Z,1.52
2022-12-15T16:04:06.743Z,1.49
2022-12-15T16:09:28.521Z,1.53
2022-12-15T16:14:50.400Z,1.35
2022-12-15T16:20:14.057Z,1.55
2022-12-15T16:25:50.273Z,1.65
2022-12-15T16:31:24.620Z,1.68
2022-12-15T16:36:46.758Z,1.80
2022-12-15T16:42:11.717Z,1.60
2022-12-15T16:47:33.544Z,1.61
2022-12-15T16:52:55.849Z,1.66
2022-12-15T16:58:17.699Z,1.72
2022-12-15T17:03:39.466Z,1.71
2022-12-15T17:09:01.665Z,1.69
2022-12-15T17:14:23.411Z,1.72
2022-12-15T17:20:05.006Z,1.77
2022-12-15T17:26:18.194Z,1.71
2022-12-15T17:31:21.196Z,1.47
2022-12-15T17:36:42.985Z,1.63
2022-12-15T17:42:19.561Z,1.69
2022-12-15T17:47:41.350Z,1.68
2022-12-15T17:53:07.661Z,1.55
2022-12-15T17:58:29.419Z,1.52
2022-12-15T18:03:51.315Z,1.62
2022-12-15T18:09:16.380Z,1.44
2022-12-15T18:14:38.134Z,1.50
2022-12-15T18:19:59.969Z,1.34
2022-12-15T18:25:28.478Z,1.45
2022-12-15T18:30:52.874Z,1.56
2022-12-15T18:36:16.151Z,1.55
2022-12-15T18:41:37.865Z,1.44
2022-12-15T18:46:59.669Z,1.47
2022-12-15T18:52:23.817Z,1.45
2022-12-15T18:57:45.728Z,1.28
2022-12-15T19:03:08.082Z,1.34
2022-12-15T19:08:35.967Z,1.44
2022-12-15T19:14:02.639Z,1.31
2022-12-15T19:19:43.038Z,1.25
2022-12-15T19:25:06.013Z,1.10
2022-12-15T19:30:30.460Z,1.10
2022-12-15T19:35:54.821Z,1.24
2022-12-15T19:41:18.121Z,1.24
2022-12-15T19:46:42.185Z,1.17
2022-12-15T19:52:04.054Z,1.16
2022-12-15T19:57:25.789Z,1.18
2022-12-15T20:02:52.402Z,1.21
2022-12-15T20:08:19.389Z,1.14
2022-12-15T20:13:41.080Z,1.02
2022-12-15T20:19:03.490Z,1.23
2022-12-15T20:24:30.969Z,1.18
2022-12-15T20:29:52.718Z,1.20
2022-12-15T20:35:17.074Z,1.23
2022-12-15T20:40:38.852Z,1.07
2022-12-15T20:46:05.416Z,0.99
2022-12-15T20:51:30.111Z,0.93
2022-12-15T20:56:51.858Z,0.98
2022-12-15T21:02:24.354Z,0.75
2022-12-15T21:07:47.659Z,0.98
2022-12-15T21:13:15.577Z,0.83
2022-12-15T21:24:25.609Z,0.71
2022-12-15T21:29:52.530Z,0.79
2022-12-15T21:35:16.965Z,0.63
2022-12-15T21:40:38.698Z,0.85
2022-12-15T21:46:02.644Z,0.97
2022-12-15T21:51:25.507Z,0.70
2022-12-15T21:56:48.471Z,0.83
2022-12-15T22:02:40.038Z,0.77
2022-12-15T22:08:13.754Z,0.42
2022-12-15T22:13:35.643Z,0.65
2022-12-15T22:18:58.334Z,0.59
2022-12-15T22:24:20.126Z,0.48
2022-12-15T22:29:41.984Z,0.48
2022-12-15T22:35:13.231Z,0.45
2022-12-15T22:40:35.551Z,0.40
2022-12-15T22:45:57.566Z,0.09
2022-12-15T22:51:19.835Z,0.24
2022-12-15T22:56:41.567Z,0.06
2022-12-15T23:02:04.114Z,0.09
2022-12-15T23:07:26.311Z,0.00
2022-12-15T23:12:48.599Z,-0.12
2022-12-15T23:18:10.758Z,0.03
2022-12-15T23:23:32.943Z,-0.25
2022-12-15T23:28:55.104Z,-0.34
2022-12-15T23:34:17.021Z,-0.15
2022-12-15T23:39:38.748Z,-0.34
2022-12-15T23:45:00.644Z,-0.15
2022-12-15T23:50:22.481Z,-0.25
2022-12-15T23:55:44.197Z,-0.20
